sensor_id;sensor_type;location;lat;lon;timestamp;pressure;altitude;pressure_sealevel;temperature;humidity
30636;BME280;17400;52.392;9.750;2023-11-21T00:00:04;100297.69;;;10.08;100.00
30636;BME280;17400;52.392;9.750;2023-11-21T00:02:37;100298.34;;;10.10;100.00
30636;BME280;17400;52.392;9.750;2023-11-21T00:05:07;100304.78;;;10.09;100.00
30636;BME280;17400;52.392;9.750;2023-11-21T00:07:38;100304.56;;;10.04;100.00
30636;BME280;17400;52.392;9.750;2023-11-21T00:10:06;100305.59;;;10.03;100.00
30636;BME280;17400;52.392;9.750;2023-11-21T00:12:35;100305.81;;;10.01;100.00
30636;BME280;17400;52.392;9.750;2023-11-21T00:15:03;100300.38;;;10.01;100.00
30636;BME280;17400;52.392;9.750;2023-11-21T00:17:32;100307.47;;;10.02;100.00
30636;BME280;17400;52.392;9.750;2023-11-21T00:20:00;100309.16;;;10.03;100.00
30636;BME280;17400;52.392;9.750;2023-11-21T00:22:28;100317.66;;;10.00;100.00
30636;BME280;17400;52.392;9.750;2023-11-21T00:24:58;100313.69;;;10.03;100.00
30636;BME280;17400;52.392;9.750;2023-11-21T00:27:25;100307.06;;;10.05;100.00
30636;BME280;17400;52.392;9.750;2023-11-21T00:29:53;100303.53;;;10.05;100.00
30636;BME280;17400;52.392;9.750;2023-11-21T00:32:21;100300.00;;;10.04;100.00
30636;BME280;17400;52.392;9.750;2023-11-21T00:34:49;100309.16;;;10.03;100.00
30636;BME280;17400;52.392;9.750;2023-11-21T00:37:17;100303.53;;;10.05;100.00
30636;BME280;17400;52.392;9.750;2023-11-21T00:39:45;100306.44;;;10.03;100.00
30636;BME280;17400;52.392;9.750;2023-11-21T00:42:14;100303.09;;;10.01;100.00
30636;BME280;17400;52.392;9.750;2023-11-21T00:44:42;100302.47;;;9.99;100.00
30636;BME280;17400;52.392;9.750;2023-11-21T00:47:10;100305.19;;;9.99;100.00
30636;BME280;17400;52.392;9.750;2023-11-21T00:49:38;100316.00;;;9.99;100.00
30636;BME280;17400;52.392;9.750;2023-11-21T00:52:06;100313.09;;;10.00;100.00
30636;BME280;17400;52.392;9.750;2023-11-21T00:54:34;100314.56;;;10.03;100.00
30636;BME280;17400;52.392;9.750;2023-11-21T00:57:02;100313.91;;;10.01;100.00
30636;BME280;17400;52.392;9.750;2023-11-21T00:59:31;100330.78;;;10.03;100.00
30636;BME280;17400;52.392;9.750;2023-11-21T01:01:59;100329.09;;;10.02;100.00
30636;BME280;17400;52.392;9.750;2023-11-21T01:04:28;100334.50;;;10.02;100.00
30636;BME280;17400;52.392;9.750;2023-11-21T01:06:56;100332.47;;;10.04;100.00
30636;BME280;17400;52.392;9.750;2023-11-21T01:09:24;100334.50;;;10.02;100.00
30636;BME280;17400;52.392;9.750;2023-11-21T01:11:52;100331.16;;;10.00;100.00
30636;BME280;17400;52.392;9.750;2023-11-21T01:14:20;100334.50;;;9.95;100.00
30636;BME280;17400;52.392;9.750;2023-11-21T01:16:49;100342.41;;;9.97;100.00
30636;BME280;17400;52.392;9.750;2023-11-21T01:19:17;100342.84;;;10.00;100.00
30636;BME280;17400;52.392;9.750;2023-11-21T01:21:45;100349.06;;;10.01;100.00
30636;BME280;17400;52.392;9.750;2023-11-21T01:24:14;100350.09;;;10.00;100.00
30636;BME280;17400;52.392;9.750;2023-11-21T01:26:41;100360.75;;;10.02;100.00
30636;BME280;17400;52.392;9.750;2023-11-21T01:29:10;100355.31;;;9.95;100.00
30636;BME280;17400;52.392;9.750;2023-11-21T01:31:37;100356.34;;;9.94;100.00
30636;BME280;17400;52.392;9.750;2023-11-21T01:34:07;100364.03;;;9.97;100.00
30636;BME280;17400;52.392;9.750;2023-11-21T01:36:34;100360.72;;;9.95;100.00
30636;BME280;17400;52.392;9.750;2023-11-21T01:39:03;100358.19;;;9.93;100.00
30636;BME280;17400;52.392;9.750;2023-11-21T01:41:35;100357.56;;;9.91;100.00
30636;BME280;17400;52.392;9.750;2023-11-21T01:44:04;100354.44;;;9.94;100.00
30636;BME280;17400;52.392;9.750;2023-11-21T01:46:34;100367.75;;;9.89;100.00
30636;BME280;17400;52.392;9.750;2023-11-21T01:49:02;100364.00;;;9.90;100.00
30636;BME280;17400;52.392;9.750;2023-11-21T01:51:32;100356.53;;;9.92;100.00
30636;BME280;17400;52.392;9.750;2023-11-21T01:54:01;100361.09;;;9.92;100.00
30636;BME280;17400;52.392;9.750;2023-11-21T01:56:32;100356.94;;;9.96;100.00
30636;BME280;17400;52.392;9.750;2023-11-21T01:59:01;100357.81;;;9.96;100.00
30636;BME280;17400;52.392;9.750;2023-11-21T02:01:29;100364.84;;;9.97;100.00
30636;BME280;17400;52.392;9.750;2023-11-21T02:03:57;100360.88;;;9.93;100.00
30636;BME280;17400;52.392;9.750;2023-11-21T02:06:25;100364.66;;;9.92;100.00
30636;BME280;17400;52.392;9.750;2023-11-21T02:08:54;100361.31;;;9.90;100.00
30636;BME280;17400;52.392;9.750;2023-11-21T02:11:23;100359.03;;;9.94;100.00
30636;BME280;17400;52.392;9.750;2023-11-21T02:13:52;100368.19;;;9.93;100.00
30636;BME280;17400;52.392;9.750;2023-11-21T02:16:20;100369.22;;;9.92;100.00
30636;BME280;17400;52.392;9.750;2023-11-21T02:18:48;100369.63;;;9.89;100.00
30636;BME280;17400;52.392;9.750;2023-11-21T02:21:17;100375.47;;;9.92;100.00
30636;BME280;17400;52.392;9.750;2023-11-21T02:23:47;100377.97;;;9.94;100.00
30636;BME280;17400;52.392;9.750;2023-11-21T02:26:15;100374.41;;;9.93;100.00
30636;BME280;17400;52.392;9.750;2023-11-21T02:28:43;100374.81;;;9.90;100.00
30636;BME280;17400;52.392;9.750;2023-11-21T02:31:11;100374.63;;;9.92;100.00
30636;BME280;17400;52.392;9.750;2023-11-21T02:33:39;100372.34;;;9.95;100.00
30636;BME280;17400;52.392;9.750;2023-11-21T02:36:07;100381.94;;;9.98;100.00
30636;BME280;17400;52.392;9.750;2023-11-21T02:38:35;100375.50;;;9.99;100.00
30636;BME280;17400;52.392;9.750;2023-11-21T02:41:04;100379.66;;;10.02;100.00
30636;BME280;17400;52.392;9.750;2023-11-21T02:43:32;100378.00;;;10.00;100.00
30636;BME280;17400;52.392;9.750;2023-11-21T02:46:00;100381.06;;;9.97;100.00
30636;BME280;17400;52.392;9.750;2023-11-21T02:48:28;100376.53;;;9.98;100.00
30636;BME280;17400;52.392;9.750;2023-11-21T02:50:57;100381.25;;;9.89;100.00
30636;BME280;17400;52.392;9.750;2023-11-21T02:53:25;100384.38;;;9.86;100.00
30636;BME280;17400;52.392;9.750;2023-11-21T02:55:52;100383.34;;;9.87;100.00
30636;BME280;17400;52.392;9.750;2023-11-21T02:58:22;100390.59;;;9.87;100.00
30636;BME280;17400;52.392;9.750;2023-11-21T03:00:50;100384.78;;;9.83;100.00
30636;BME280;17400;52.392;9.750;2023-11-21T03:03:18;100387.66;;;9.81;100.00
30636;BME280;17400;52.392;9.750;2023-11-21T03:05:46;100400.34;;;9.81;100.00
30636;BME280;17400;52.392;9.750;2023-11-21T03:08:14;100396.00;;;9.87;100.00
30636;BME280;17400;52.392;9.750;2023-11-21T03:10:42;100399.13;;;9.83;100.00
30636;BME280;17400;52.392;9.750;2023-11-21T03:13:10;100405.78;;;9.88;100.00
30636;BME280;17400;52.392;9.750;2023-11-21T03:15:39;100413.47;;;9.84;100.00
30636;BME280;17400;52.392;9.750;2023-11-21T03:18:07;100402.28;;;9.87;100.00
30636;BME280;17400;52.392;9.750;2023-11-21T03:20:35;100406.63;;;9.88;100.00
30636;BME280;17400;52.392;9.750;2023-11-21T03:23:02;100410.75;;;9.84;100.00
30636;BME280;17400;52.392;9.750;2023-11-21T03:25:31;100417.41;;;9.81;100.00
30636;BME280;17400;52.392;9.750;2023-11-21T03:27:59;100415.13;;;9.85;100.00
30636;BME280;17400;52.392;9.750;2023-11-21T03:30:27;100419.97;;;9.90;100.00
30636;BME280;17400;52.392;9.750;2023-11-21T03:32:56;100429.34;;;9.94;100.00
30636;BME280;17400;52.392;9.750;2023-11-21T03:35:24;100426.00;;;9.92;100.00
30636;BME280;17400;52.392;9.750;2023-11-21T03:37:53;100427.88;;;9.91;100.00
30636;BME280;17400;52.392;9.750;2023-11-21T03:40:20;100429.72;;;9.91;100.00
30636;BME280;17400;52.392;9.750;2023-11-21T03:42:48;100435.13;;;9.91;100.00
30636;BME280;17400;52.392;9.750;2023-11-21T03:45:16;100438.69;;;9.91;100.00
30636;BME280;17400;52.392;9.750;2023-11-21T03:47:44;100435.13;;;9.91;100.00
30636;BME280;17400;52.392;9.750;2023-11-21T03:50:14;100437.84;;;9.91;100.00
30636;BME280;17400;52.392;9.750;2023-11-21T03:52:43;100436.81;;;9.92;100.00
30636;BME280;17400;52.392;9.750;2023-11-21T03:55:11;100433.91;;;9.93;100.00
30636;BME280;17400;52.392;9.750;2023-11-21T03:57:38;100438.69;;;9.91;100.00
30636;BME280;17400;52.392;9.750;2023-11-21T04:00:07;100439.91;;;9.89;100.00
30636;BME280;17400;52.392;9.750;2023-11-21T04:02:36;100438.88;;;9.90;100.00
30636;BME280;17400;52.392;9.750;2023-11-21T04:05:05;100442.81;;;9.87;100.00
30636;BME280;17400;52.392;9.750;2023-11-21T04:07:35;100449.88;;;9.88;100.00
30636;BME280;17400;52.392;9.750;2023-11-21T04:10:02;100444.28;;;9.90;100.00
30636;BME280;17400;52.392;9.750;2023-11-21T04:12:30;100456.75;;;9.91;100.00
30636;BME280;17400;52.392;9.750;2023-11-21T04:14:58;100448.03;;;9.89;100.00
30636;BME280;17400;52.392;9.750;2023-11-21T04:17:26;100458.00;;;9.88;100.00
30636;BME280;17400;52.392;9.750;2023-11-21T04:19:54;100455.13;;;9.90;100.00
30636;BME280;17400;52.392;9.750;2023-11-21T04:22:22;100464.03;;;9.90;100.00
30636;BME280;17400;52.392;9.750;2023-11-21T04:24:51;100466.34;;;9.93;100.00
30636;BME280;17400;52.392;9.750;2023-11-21T04:27:19;100468.03;;;9.94;100.00
30636;BME280;17400;52.392;9.750;2023-11-21T04:29:47;100471.34;;;9.90;100.00
30636;BME280;17400;52.392;9.750;2023-11-21T04:32:15;100478.38;;;9.91;100.00
30636;BME280;17400;52.392;9.750;2023-11-21T04:34:44;100475.31;;;9.94;100.00
30636;BME280;17400;52.392;9.750;2023-11-21T04:37:11;100480.50;;;9.95;100.00
30636;BME280;17400;52.392;9.750;2023-11-21T04:39:39;100485.88;;;9.89;100.00
30636;BME280;17400;52.392;9.750;2023-11-21T04:42:09;100483.38;;;9.87;100.00
30636;BME280;17400;52.392;9.750;2023-11-21T04:44:36;100486.91;;;9.88;100.00
30636;BME280;17400;52.392;9.750;2023-11-21T04:47:07;100492.31;;;9.88;100.00
30636;BME280;17400;52.392;9.750;2023-11-21T04:49:35;100496.41;;;9.77;100.00
30636;BME280;17400;52.392;9.750;2023-11-21T04:52:03;100499.31;;;9.75;100.00
30636;BME280;17400;52.392;9.750;2023-11-21T04:54:31;100505.34;;;9.77;100.00
30636;BME280;17400;52.392;9.750;2023-11-21T04:56:59;100501.56;;;9.72;100.00
30636;BME280;17400;52.392;9.750;2023-11-21T04:59:28;100502.22;;;9.74;100.00
30636;BME280;17400;52.392;9.750;2023-11-21T05:01:56;100503.44;;;9.71;100.00
30636;BME280;17400;52.392;9.750;2023-11-21T05:04:24;100519.41;;;9.66;100.00
30636;BME280;17400;52.392;9.750;2023-11-21T05:06:52;100518.34;;;9.67;100.00
30636;BME280;17400;52.392;9.750;2023-11-21T05:09:20;100513.34;;;9.64;100.00
30636;BME280;17400;52.392;9.750;2023-11-21T05:11:49;100513.34;;;9.64;100.00
30636;BME280;17400;52.392;9.750;2023-11-21T05:14:17;100522.50;;;9.63;100.00
30636;BME280;17400;52.392;9.750;2023-11-21T05:16:46;100524.38;;;9.62;100.00
30636;BME280;17400;52.392;9.750;2023-11-21T05:19:14;100526.81;;;9.57;100.00
30636;BME280;17400;52.392;9.750;2023-11-21T05:21:42;100528.50;;;9.58;100.00
30636;BME280;17400;52.392;9.750;2023-11-21T05:24:10;100533.94;;;9.65;100.00
30636;BME280;17400;52.392;9.750;2023-11-21T05:26:38;100532.53;;;9.69;100.00
30636;BME280;17400;52.392;9.750;2023-11-21T05:29:06;100531.94;;;9.74;100.00
30636;BME280;17400;52.392;9.750;2023-11-21T05:31:35;100535.28;;;9.76;100.00
30636;BME280;17400;52.392;9.750;2023-11-21T05:34:06;100536.75;;;9.78;100.00
30636;BME280;17400;52.392;9.750;2023-11-21T05:36:34;100546.91;;;9.76;100.00
30636;BME280;17400;52.392;9.750;2023-11-21T05:39:02;100544.03;;;9.78;100.00
30636;BME280;17400;52.392;9.750;2023-11-21T05:41:30;100548.22;;;9.80;100.00
30636;BME280;17400;52.392;9.750;2023-11-21T05:43:58;100550.47;;;9.77;100.00
30636;BME280;17400;52.392;9.750;2023-11-21T05:46:27;100558.13;;;9.73;100.00
30636;BME280;17400;52.392;9.750;2023-11-21T05:48:55;100561.84;;;9.72;100.00
30636;BME280;17400;52.392;9.750;2023-11-21T05:51:25;100562.25;;;9.69;100.00
30636;BME280;17400;52.392;9.750;2023-11-21T05:53:52;100558.91;;;9.67;100.00
30636;BME280;17400;52.392;9.750;2023-11-21T05:56:20;100565.56;;;9.64;100.00
30636;BME280;17400;52.392;9.750;2023-11-21T05:58:48;100573.47;;;9.66;100.00
30636;BME280;17400;52.392;9.750;2023-11-21T06:01:17;100567.59;;;9.62;100.00
30636;BME280;17400;52.392;9.750;2023-11-21T06:03:45;100574.63;;;9.57;100.00
30636;BME280;17400;52.392;9.750;2023-11-21T06:06:13;100577.72;;;9.54;100.00
30636;BME280;17400;52.392;9.750;2023-11-21T06:08:43;100583.25;;;9.45;100.00
30636;BME280;17400;52.392;9.750;2023-11-21T06:11:10;100584.94;;;9.46;100.00
30636;BME280;17400;52.392;9.750;2023-11-21T06:13:39;100593.22;;;9.45;100.00
30636;BME280;17400;52.392;9.750;2023-11-21T06:16:07;100589.88;;;9.43;100.00
30636;BME280;17400;52.392;9.750;2023-11-21T06:18:35;100598.19;;;9.41;100.00
30636;BME280;17400;52.392;9.750;2023-11-21T06:21:04;100603.50;;;9.34;100.00
30636;BME280;17400;52.392;9.750;2023-11-21T06:23:31;100600.81;;;9.34;100.00
30636;BME280;17400;52.392;9.750;2023-11-21T06:26:01;100608.16;;;9.41;100.00
30636;BME280;17400;52.392;9.750;2023-11-21T06:28:29;100603.13;;;9.38;100.00
30636;BME280;17400;52.392;9.750;2023-11-21T06:30:57;100610.41;;;9.37;100.00
30636;BME280;17400;52.392;9.750;2023-11-21T06:33:25;100618.69;;;9.36;100.00
30636;BME280;17400;52.392;9.750;2023-11-21T06:35:54;100622.34;;;9.28;100.00
30636;BME280;17400;52.392;9.750;2023-11-21T06:38:22;100636.16;;;9.18;100.00
30636;BME280;17400;52.392;9.750;2023-11-21T06:40:49;100643.09;;;8.91;100.00
30636;BME280;17400;52.392;9.750;2023-11-21T06:43:19;100650.91;;;8.86;100.00
30636;BME280;17400;52.392;9.750;2023-11-21T06:45:49;100654.34;;;8.79;100.00
30636;BME280;17400;52.392;9.750;2023-11-21T06:48:16;100660.41;;;8.66;100.00
30636;BME280;17400;52.392;9.750;2023-11-21T06:50:45;100655.75;;;8.60;100.00
30636;BME280;17400;52.392;9.750;2023-11-21T06:53:13;100667.56;;;8.59;100.00
30636;BME280;17400;52.392;9.750;2023-11-21T06:55:41;100677.16;;;8.62;100.00
30636;BME280;17400;52.392;9.750;2023-11-21T06:58:09;100686.47;;;8.59;100.00
30636;BME280;17400;52.392;9.750;2023-11-21T07:00:38;100702.06;;;8.49;100.00
30636;BME280;17400;52.392;9.750;2023-11-21T07:03:05;100699.75;;;8.46;100.00
30636;BME280;17400;52.392;9.750;2023-11-21T07:05:34;100703.44;;;8.45;100.00
30636;BME280;17400;52.392;9.750;2023-11-21T07:08:02;100706.22;;;8.37;100.00
30636;BME280;17400;52.392;9.750;2023-11-21T07:10:31;100717.09;;;8.28;100.00
30636;BME280;17400;52.392;9.750;2023-11-21T07:12:59;100717.72;;;8.30;100.00
30636;BME280;17400;52.392;9.750;2023-11-21T07:15:27;100722.94;;;8.32;100.00
30636;BME280;17400;52.392;9.750;2023-11-21T07:17:57;100718.22;;;8.34;100.00
30636;BME280;17400;52.392;9.750;2023-11-21T07:20:25;100727.25;;;8.41;100.00
30636;BME280;17400;52.392;9.750;2023-11-21T07:22:53;100724.88;;;8.46;100.00
30636;BME280;17400;52.392;9.750;2023-11-21T07:25:22;100729.59;;;8.44;100.00
30636;BME280;17400;52.392;9.750;2023-11-21T07:27:50;100736.00;;;8.43;100.00
30636;BME280;17400;52.392;9.750;2023-11-21T07:30:19;100748.91;;;8.33;100.00
30636;BME280;17400;52.392;9.750;2023-11-21T07:32:49;100748.59;;;8.28;100.00
30636;BME280;17400;52.392;9.750;2023-11-21T07:35:18;100755.84;;;8.27;100.00
30636;BME280;17400;52.392;9.750;2023-11-21T07:37:46;100759.94;;;8.23;100.00
30636;BME280;17400;52.392;9.750;2023-11-21T07:40:16;100764.84;;;8.20;100.00
30636;BME280;17400;52.392;9.750;2023-11-21T07:42:43;100771.25;;;8.18;100.00
30636;BME280;17400;52.392;9.750;2023-11-21T07:45:11;100775.63;;;8.20;100.00
30636;BME280;17400;52.392;9.750;2023-11-21T07:47:39;100776.00;;;8.16;100.00
30636;BME280;17400;52.392;9.750;2023-11-21T07:50:08;100780.91;;;8.13;100.00
30636;BME280;17400;52.392;9.750;2023-11-21T07:52:37;100789.81;;;8.13;100.00
30636;BME280;17400;52.392;9.750;2023-11-21T07:55:06;100782.41;;;8.15;100.00
30636;BME280;17400;52.392;9.750;2023-11-21T07:57:35;100784.09;;;8.16;100.00
30636;BME280;17400;52.392;9.750;2023-11-21T08:00:04;100793.19;;;8.15;100.00
30636;BME280;17400;52.392;9.750;2023-11-21T08:02:33;100805.69;;;8.08;100.00
30636;BME280;17400;52.392;9.750;2023-11-21T08:05:01;100805.06;;;8.06;100.00
30636;BME280;17400;52.392;9.750;2023-11-21T08:07:29;100808.94;;;8.04;100.00
30636;BME280;17400;52.392;9.750;2023-11-21T08:09:59;100815.34;;;8.03;100.00
30636;BME280;17400;52.392;9.750;2023-11-21T08:12:26;100818.03;;;8.03;100.00
30636;BME280;17400;52.392;9.750;2023-11-21T08:14:54;100824.81;;;7.98;100.00
30636;BME280;17400;52.392;9.750;2023-11-21T08:17:23;100832.38;;;8.03;100.00
30636;BME280;17400;52.392;9.750;2023-11-21T08:19:51;100833.56;;;8.00;100.00
30636;BME280;17400;52.392;9.750;2023-11-21T08:22:19;100847.69;;;8.03;100.00
30636;BME280;17400;52.392;9.750;2023-11-21T08:24:47;100844.69;;;7.97;100.00
30636;BME280;17400;52.392;9.750;2023-11-21T08:27:16;100843.50;;;8.00;100.00
30636;BME280;17400;52.392;9.750;2023-11-21T08:29:44;100851.25;;;8.03;100.00
30636;BME280;17400;52.392;9.750;2023-11-21T08:32:12;100854.78;;;8.04;100.00
30636;BME280;17400;52.392;9.750;2023-11-21T08:34:40;100863.38;;;8.07;100.00
30636;BME280;17400;52.392;9.750;2023-11-21T08:37:09;100864.06;;;8.01;100.00
30636;BME280;17400;52.392;9.750;2023-11-21T08:39:37;100865.19;;;8.07;100.00
30636;BME280;17400;52.392;9.750;2023-11-21T08:42:05;100853.91;;;8.11;100.00
30636;BME280;17400;52.392;9.750;2023-11-21T08:44:34;100870.72;;;8.13;100.00
30636;BME280;17400;52.392;9.750;2023-11-21T08:47:03;100872.41;;;8.14;100.00
30636;BME280;17400;52.392;9.750;2023-11-21T08:49:34;100864.44;;;8.21;100.00
30636;BME280;17400;52.392;9.750;2023-11-21T08:52:02;100863.38;;;8.30;100.00
30636;BME280;17400;52.392;9.750;2023-11-21T08:54:31;100868.19;;;8.43;100.00
30636;BME280;17400;52.392;9.750;2023-11-21T08:57:01;100870.56;;;8.46;100.00
30636;BME280;17400;52.392;9.750;2023-11-21T08:59:29;100884.56;;;8.42;100.00
30636;BME280;17400;52.392;9.750;2023-11-21T09:01:58;100886.06;;;8.44;100.00
30636;BME280;17400;52.392;9.750;2023-11-21T09:04:26;100895.22;;;8.35;100.00
30636;BME280;17400;52.392;9.750;2023-11-21T09:06:54;100890.13;;;8.40;100.00
30636;BME280;17400;52.392;9.750;2023-11-21T09:09:22;100896.53;;;8.47;100.00
30636;BME280;17400;52.392;9.750;2023-11-21T09:11:51;100901.41;;;8.52;100.00
30636;BME280;17400;52.392;9.750;2023-11-21T09:14:19;100904.03;;;8.60;100.00
30636;BME280;17400;52.392;9.750;2023-11-21T09:16:47;100914.69;;;8.54;100.00
30636;BME280;17400;52.392;9.750;2023-11-21T09:19:17;100918.09;;;8.47;100.00
30636;BME280;17400;52.392;9.750;2023-11-21T09:21:45;100922.66;;;8.47;100.00
30636;BME280;17400;52.392;9.750;2023-11-21T09:24:13;100918.09;;;8.47;100.00
30636;BME280;17400;52.392;9.750;2023-11-21T09:26:40;100928.56;;;8.42;100.00
30636;BME280;17400;52.392;9.750;2023-11-21T09:29:09;100939.88;;;8.46;100.00
30636;BME280;17400;52.392;9.750;2023-11-21T09:31:36;100942.03;;;8.50;100.00
30636;BME280;17400;52.392;9.750;2023-11-21T09:34:05;100948.28;;;8.51;100.00
30636;BME280;17400;52.392;9.750;2023-11-21T09:36:35;100953.31;;;8.54;100.00
30636;BME280;17400;52.392;9.750;2023-11-21T09:39:05;100957.72;;;8.39;100.00
30636;BME280;17400;52.392;9.750;2023-11-21T09:41:40;100956.22;;;8.44;100.00
30636;BME280;17400;52.392;9.750;2023-11-21T09:44:13;100962.78;;;8.50;100.00
30636;BME280;17400;52.392;9.750;2023-11-21T09:46:42;100959.56;;;8.55;100.00
30636;BME280;17400;52.392;9.750;2023-11-21T09:49:11;100967.66;;;8.55;100.00
30636;BME280;17400;52.392;9.750;2023-11-21T09:51:43;100969.63;;;8.61;100.00
30636;BME280;17400;52.392;9.750;2023-11-21T09:54:13;100982.28;;;8.60;100.00
30636;BME280;17400;52.392;9.750;2023-11-21T09:56:42;100989.25;;;8.55;100.00
30636;BME280;17400;52.392;9.750;2023-11-21T09:59:13;100985.88;;;8.53;100.00
30636;BME280;17400;52.392;9.750;2023-11-21T10:01:43;100991.13;;;8.46;100.00
30636;BME280;17400;52.392;9.750;2023-11-21T10:04:11;100997.69;;;8.43;100.00
30636;BME280;17400;52.392;9.750;2023-11-21T10:06:41;100992.66;;;8.40;100.00
30636;BME280;17400;52.392;9.750;2023-11-21T10:09:13;100988.97;;;8.33;100.00
30636;BME280;17400;52.392;9.750;2023-11-21T10:11:42;101003.00;;;8.28;100.00
30636;BME280;17400;52.392;9.750;2023-11-21T10:14:11;101003.97;;;8.36;100.00
30636;BME280;17400;52.392;9.750;2023-11-21T10:16:41;101013.38;;;8.40;100.00
30636;BME280;17400;52.392;9.750;2023-11-21T10:19:14;101015.44;;;8.38;100.00
30636;BME280;17400;52.392;9.750;2023-11-21T10:21:44;101016.63;;;8.35;100.00
30636;BME280;17400;52.392;9.750;2023-11-21T10:24:12;101011.22;;;8.35;100.00
30636;BME280;17400;52.392;9.750;2023-11-21T10:26:40;101013.75;;;8.37;100.00
30636;BME280;17400;52.392;9.750;2023-11-21T10:29:19;101014.94;;;8.34;100.00
30636;BME280;17400;52.392;9.750;2023-11-21T10:31:49;101015.94;;;8.33;100.00
30636;BME280;17400;52.392;9.750;2023-11-21T10:34:20;101027.19;;;8.45;100.00
30636;BME280;17400;52.392;9.750;2023-11-21T10:36:50;101022.88;;;8.27;100.00
30636;BME280;17400;52.392;9.750;2023-11-21T10:39:19;101027.47;;;8.10;100.00
30636;BME280;17400;52.392;9.750;2023-11-21T10:41:50;101030.34;;;8.09;100.00
30636;BME280;17400;52.392;9.750;2023-11-21T10:44:18;101035.41;;;8.12;100.00
30636;BME280;17400;52.392;9.750;2023-11-21T10:46:49;101040.09;;;8.18;100.00
30636;BME280;17400;52.392;9.750;2023-11-21T10:49:18;101040.47;;;8.15;100.00
30636;BME280;17400;52.392;9.750;2023-11-21T10:51:47;101045.31;;;8.20;100.00
30636;BME280;17400;52.392;9.750;2023-11-21T10:54:19;101049.38;;;8.15;100.00
30636;BME280;17400;52.392;9.750;2023-11-21T10:56:49;101052.28;;;8.06;100.00
30636;BME280;17400;52.392;9.750;2023-11-21T10:59:19;101046.53;;;8.09;100.00
30636;BME280;17400;52.392;9.750;2023-11-21T11:01:51;101050.56;;;8.13;100.00
30636;BME280;17400;52.392;9.750;2023-11-21T11:04:20;101053.22;;;8.21;100.00
30636;BME280;17400;52.392;9.750;2023-11-21T11:06:54;101058.78;;;8.28;100.00
30636;BME280;17400;52.392;9.750;2023-11-21T11:09:24;101062.81;;;8.32;100.00
30636;BME280;17400;52.392;9.750;2023-11-21T11:11:52;101066.19;;;8.34;100.00
30636;BME280;17400;52.392;9.750;2023-11-21T11:14:20;101064.50;;;8.33;100.00
30636;BME280;17400;52.392;9.750;2023-11-21T11:16:54;101065.69;;;8.30;100.00
30636;BME280;17400;52.392;9.750;2023-11-21T11:19:22;101058.44;;;8.31;100.00
30636;BME280;17400;52.392;9.750;2023-11-21T11:22:02;101062.81;;;8.32;100.00
30636;BME280;17400;52.392;9.750;2023-11-21T11:24:56;101066.19;;;8.34;100.00
30636;BME280;17400;52.392;9.750;2023-11-21T11:27:34;101070.75;;;8.33;100.00
30636;BME280;17400;52.392;9.750;2023-11-21T11:30:12;101082.22;;;8.27;100.00
30636;BME280;17400;52.392;9.750;2023-11-21T11:32:52;101075.81;;;8.28;100.00
30636;BME280;17400;52.392;9.750;2023-11-21T11:35:28;101077.94;;;8.41;100.00
30636;BME280;17400;52.392;9.750;2023-11-21T11:38:01;101083.00;;;8.53;100.00
30636;BME280;17400;52.392;9.750;2023-11-21T11:40:40;101083.00;;;8.53;100.00
30636;BME280;17400;52.392;9.750;2023-11-21T11:43:08;101089.41;;;8.52;100.00
30636;BME280;17400;52.392;9.750;2023-11-21T11:45:37;101084.56;;;8.47;100.00
30636;BME280;17400;52.392;9.750;2023-11-21T11:48:11;101088.22;;;8.54;100.00
30636;BME280;17400;52.392;9.750;2023-11-21T11:51:02;101099.56;;;8.49;100.00
30636;BME280;17400;52.392;9.750;2023-11-21T11:53:39;101098.03;;;8.47;100.00
30636;BME280;17400;52.392;9.750;2023-11-21T11:56:26;101101.91;;;8.53;100.00
30636;BME280;17400;52.392;9.750;2023-11-21T11:58:55;101107.47;;;8.51;100.00
30636;BME280;17400;52.392;9.750;2023-11-21T12:01:24;101107.28;;;8.44;100.00
30636;BME280;17400;52.392;9.750;2023-11-21T12:04:24;101111.34;;;8.32;100.00
30636;BME280;17400;52.392;9.750;2023-11-21T12:07:01;101104.94;;;8.33;100.00
30636;BME280;17400;52.392;9.750;2023-11-21T12:09:31;101110.69;;;8.38;100.00
30636;BME280;17400;52.392;9.750;2023-11-21T12:12:02;101106.63;;;8.42;100.00
30636;BME280;17400;52.392;9.750;2023-11-21T12:14:30;101114.72;;;8.50;100.00
30636;BME280;17400;52.392;9.750;2023-11-21T12:16:58;101118.25;;;8.43;100.00
30636;BME280;17400;52.392;9.750;2023-11-21T12:19:27;101124.16;;;8.38;100.00
30636;BME280;17400;52.392;9.750;2023-11-21T12:21:55;101126.03;;;8.38;100.00
30636;BME280;17400;52.392;9.750;2023-11-21T12:24:23;101131.28;;;8.31;100.00
30636;BME280;17400;52.392;9.750;2023-11-21T12:26:51;101131.75;;;8.34;100.00
30636;BME280;17400;52.392;9.750;2023-11-21T12:29:21;101130.56;;;8.37;100.00
30636;BME280;17400;52.392;9.750;2023-11-21T12:31:49;101134.13;;;8.46;100.00
30636;BME280;17400;52.392;9.750;2023-11-21T12:34:17;101138.69;;;8.45;100.00
30636;BME280;17400;52.392;9.750;2023-11-21T12:36:45;101140.34;;;8.46;100.00
30636;BME280;17400;52.392;9.750;2023-11-21T12:39:13;101147.75;;;8.44;100.00
30636;BME280;17400;52.392;9.750;2023-11-21T12:41:41;101144.22;;;8.44;100.00
30636;BME280;17400;52.392;9.750;2023-11-21T12:44:12;101153.47;;;8.41;100.00
30636;BME280;17400;52.392;9.750;2023-11-21T12:46:43;101162.09;;;8.37;100.00
30636;BME280;17400;52.392;9.750;2023-11-21T12:49:14;101152.69;;;8.32;100.00
30636;BME280;17400;52.392;9.750;2023-11-21T12:51:45;101161.97;;;8.30;100.00
30636;BME280;17400;52.392;9.750;2023-11-21T12:54:13;101155.56;;;8.31;100.00
30636;BME280;17400;52.392;9.750;2023-11-21T12:56:45;101161.97;;;8.30;100.00